Meteo Giornale » Osservazioni meteo Italia » Treviso-Istrana

ore: 01:55 - Osservazioni Meteo Treviso-Istrana
Lat. 45° 41' N Lon. 12° 6' E Alt. 45 metri s.l.m.

molto_nuvoloso Europe/Rome

22 °C

Molto Nuvoloso

Temp. 24 Ore

20 °C

28 °C

Est

18.5 Km/h

Dew point 17 °C

Umidità 73 %

Visibilità  10 Km

Il sole sorge alle ore 05:58

Il sole tramonta alle ore 20:36

Data e Ora Cielo e Fenomeni T °C DP °C Um. % Pres. hPa Vis. km Vento km/h
Oggi h: 01:55 molto_nuvoloso Molto Nuvoloso 22 17 73 1007 10 E 18.5
Oggi h: 00:55 molto_nuvoloso Molto Nuvoloso 22 20 88 1008 10 E/NE 13
Ieri h: 23:55 molto_nuvoloso Molto Nuvoloso 22 19 83 1008 10 E/NE 11.1
Ieri h: 22:55 molto_nuvoloso Molto Nuvoloso 22 20 88 1009 10 N/NE 7.4
Ieri h: 21:55 molto_nuvoloso Molto Nuvoloso 23 21 88 1009 10 NE 11.1
Ieri h: 20:55 nuvoloso Nuvoloso 23 21 88 1009 10 N/NE 9.3
Ieri h: 19:55 coperto_pioggia Pioggia Debole 24 22 88 1010 10 N 11.1
Ieri h: 17:55 nuvoloso Nuvoloso 27 19 61 1011 10 S 9.3
Ieri h: 16:55 molto_nuvoloso Molto Nuvoloso 26 19 65 1011 10 E 7.4
Ieri h: 15:55 poco_nuvoloso Poco Nuvoloso 27 19 61 1011 10 N 5.5
Ieri h: 13:55 nuvoloso Nuvoloso 28 18 54 1012 10 S/SE 9.3
Ieri h: 12:55 poco_nuvoloso Poco Nuvoloso 28 18 54 1012 10 S 7.4
Ieri h: 11:55 nuvoloso Nuvoloso 26 20 69 1013 10 SE 9.3
Ieri h: 10:55 poco_nuvoloso Poco Nuvoloso 25 20 73 1013 10 E 9.3
Ieri h: 09:55 sereno Sereno 25 20 73 1013 10 NE 11.1
Ieri h: 08:55 sereno Sereno 23 19 78 1012 10 E/NE 11.1
Ieri h: 07:55 sereno Sereno 21 19 88 1012 10 NE 9.3
Ieri h: 06:55 molto_nuvoloso Molto Nuvoloso 20 18 88 1012 10 NE 7.4
Ieri h: 05:55 molto_nuvoloso Molto Nuvoloso 20 18 88 1012 10 E/NE 11.1
Ieri h: 04:55 molto_nuvoloso Molto Nuvoloso 21 20 94 1012 10 E 7.4
Ieri h: 03:55 sereno Sereno 22 21 94 1012 10 E/NE 11.1
Ieri h: 02:55 sereno Sereno 22 21 94 1012 10 E/NE 9.3